sensor_id;sensor_type;location;lat;lon;timestamp;noise_LAeq;noise_LA_min;noise_LA_max;noise_LA01;noise_LA95
66458;Laerm;56835;52.198;4.826;2023-02-26T00:00:05;55.99;53.65;57.52;;
66458;Laerm;56835;52.198;4.826;2023-02-26T00:00:21;55.98;53.66;57.78;;
66458;Laerm;56835;52.198;4.826;2023-02-26T00:00:32;55.91;53.12;57.34;;
66458;Laerm;56835;52.198;4.826;2023-02-26T00:00:42;56.06;54.38;57.56;;
66458;Laerm;56835;52.198;4.826;2023-02-26T00:00:52;56.07;53.76;57.55;;
66458;Laerm;56835;52.198;4.826;2023-02-26T00:01:10;56.15;53.87;57.82;;
66458;Laerm;56835;52.198;4.826;2023-02-26T00:01:23;56.11;53.87;57.80;;
66458;Laerm;56835;52.198;4.826;2023-02-26T00:01:33;56.05;53.99;57.46;;
66458;Laerm;56835;52.198;4.826;2023-02-26T00:01:43;56.11;53.84;57.63;;
66458;Laerm;56835;52.198;4.826;2023-02-26T00:01:53;56.08;53.65;57.72;;
66458;Laerm;56835;52.198;4.826;2023-02-26T00:02:07;56.14;54.05;57.47;;
66458;Laerm;56835;52.198;4.826;2023-02-26T00:02:19;56.06;54.11;57.55;;
66458;Laerm;56835;52.198;4.826;2023-02-26T00:02:29;55.93;53.41;57.40;;
66458;Laerm;56835;52.198;4.826;2023-02-26T00:02:40;55.94;54.11;57.27;;
66458;Laerm;56835;52.198;4.826;2023-02-26T00:02:51;55.98;54.00;57.76;;
66458;Laerm;56835;52.198;4.826;2023-02-26T00:03:01;56.00;54.36;57.49;;
66458;Laerm;56835;52.198;4.826;2023-02-26T00:03:12;56.00;53.67;57.37;;
66458;Laerm;56835;52.198;4.826;2023-02-26T00:03:22;55.97;52.70;57.47;;
66458;Laerm;56835;52.198;4.826;2023-02-26T00:03:32;55.99;53.76;57.27;;
66458;Laerm;56835;52.198;4.826;2023-02-26T00:03:42;56.02;53.71;57.31;;
66458;Laerm;56835;52.198;4.826;2023-02-26T00:03:54;55.99;53.94;57.71;;
66458;Laerm;56835;52.198;4.826;2023-02-26T00:04:05;55.99;54.12;57.50;;
66458;Laerm;56835;52.198;4.826;2023-02-26T00:04:16;56.00;53.17;57.59;;
66458;Laerm;56835;52.198;4.826;2023-02-26T00:04:26;55.92;53.52;57.36;;
66458;Laerm;56835;52.198;4.826;2023-02-26T00:04:36;55.91;53.38;57.38;;
66458;Laerm;56835;52.198;4.826;2023-02-26T00:04:46;55.88;53.74;57.45;;
66458;Laerm;56835;52.198;4.826;2023-02-26T00:04:57;55.97;53.95;57.49;;
66458;Laerm;56835;52.198;4.826;2023-02-26T00:05:07;55.97;54.10;57.70;;
66458;Laerm;56835;52.198;4.826;2023-02-26T00:05:18;56.02;54.32;57.93;;
66458;Laerm;56835;52.198;4.826;2023-02-26T00:05:28;55.96;53.61;57.28;;
66458;Laerm;56835;52.198;4.826;2023-02-26T00:05:39;56.01;53.73;57.61;;
66458;Laerm;56835;52.198;4.826;2023-02-26T00:05:49;55.93;53.98;57.53;;
66458;Laerm;56835;52.198;4.826;2023-02-26T00:05:59;56.00;54.03;57.49;;
66458;Laerm;56835;52.198;4.826;2023-02-26T00:06:10;55.94;54.06;57.31;;
66458;Laerm;56835;52.198;4.826;2023-02-26T00:06:21;55.90;53.88;57.69;;
66458;Laerm;56835;52.198;4.826;2023-02-26T00:06:32;55.98;53.38;57.42;;
66458;Laerm;56835;52.198;4.826;2023-02-26T00:06:42;55.92;53.93;57.54;;
66458;Laerm;56835;52.198;4.826;2023-02-26T00:07:01;55.97;53.80;57.77;;
66458;Laerm;56835;52.198;4.826;2023-02-26T00:07:14;55.96;53.52;57.75;;
66458;Laerm;56835;52.198;4.826;2023-02-26T00:07:24;55.95;53.61;57.67;;
66458;Laerm;56835;52.198;4.826;2023-02-26T00:07:36;55.89;53.91;57.40;;
66458;Laerm;56835;52.198;4.826;2023-02-26T00:07:47;55.88;53.24;57.61;;
66458;Laerm;56835;52.198;4.826;2023-02-26T00:07:57;55.84;53.45;57.73;;
66458;Laerm;56835;52.198;4.826;2023-02-26T00:08:07;55.96;53.85;57.18;;
66458;Laerm;56835;52.198;4.826;2023-02-26T00:08:18;55.96;53.69;57.53;;
66458;Laerm;56835;52.198;4.826;2023-02-26T00:08:28;55.94;54.20;57.44;;
66458;Laerm;56835;52.198;4.826;2023-02-26T00:08:40;55.86;53.95;57.33;;
66458;Laerm;56835;52.198;4.826;2023-02-26T00:08:50;55.96;53.49;57.30;;
66458;Laerm;56835;52.198;4.826;2023-02-26T00:09:01;56.00;53.40;57.30;;
66458;Laerm;56835;52.198;4.826;2023-02-26T00:09:12;55.91;54.13;57.27;;
66458;Laerm;56835;52.198;4.826;2023-02-26T00:09:23;56.02;54.05;57.76;;
66458;Laerm;56835;52.198;4.826;2023-02-26T00:09:33;56.00;53.91;57.49;;
66458;Laerm;56835;52.198;4.826;2023-02-26T00:09:43;55.90;53.59;57.27;;
66458;Laerm;56835;52.198;4.826;2023-02-26T00:09:54;55.84;53.87;57.09;;
66458;Laerm;56835;52.198;4.826;2023-02-26T00:10:05;55.85;53.98;57.26;;
66458;Laerm;56835;52.198;4.826;2023-02-26T00:10:16;55.84;53.26;57.30;;
66458;Laerm;56835;52.198;4.826;2023-02-26T00:10:26;55.88;54.17;57.35;;
66458;Laerm;56835;52.198;4.826;2023-02-26T00:10:36;55.91;54.28;57.67;;
66458;Laerm;56835;52.198;4.826;2023-02-26T00:10:47;55.86;53.22;57.17;;
66458;Laerm;56835;52.198;4.826;2023-02-26T00:10:57;55.85;53.17;57.07;;
66458;Laerm;56835;52.198;4.826;2023-02-26T00:11:10;55.85;54.02;57.23;;
66458;Laerm;56835;52.198;4.826;2023-02-26T00:11:21;55.86;54.11;57.27;;
66458;Laerm;56835;52.198;4.826;2023-02-26T00:11:31;55.81;54.07;57.39;;
66458;Laerm;56835;52.198;4.826;2023-02-26T00:11:42;55.82;53.80;57.01;;
66458;Laerm;56835;52.198;4.826;2023-02-26T00:11:53;55.86;53.88;57.13;;
66458;Laerm;56835;52.198;4.826;2023-02-26T00:12:03;55.79;53.88;57.32;;
66458;Laerm;56835;52.198;4.826;2023-02-26T00:12:13;55.83;54.19;57.32;;
66458;Laerm;56835;52.198;4.826;2023-02-26T00:12:24;55.80;53.77;57.02;;
66458;Laerm;56835;52.198;4.826;2023-02-26T00:12:34;55.80;54.11;57.78;;
66458;Laerm;56835;52.198;4.826;2023-02-26T00:12:45;55.71;53.13;57.61;;
66458;Laerm;56835;52.198;4.826;2023-02-26T00:12:55;55.82;53.89;57.61;;
66458;Laerm;56835;52.198;4.826;2023-02-26T00:13:06;55.82;53.54;57.26;;
66458;Laerm;56835;52.198;4.826;2023-02-26T00:13:16;55.80;53.82;57.35;;
66458;Laerm;56835;52.198;4.826;2023-02-26T00:13:27;55.72;53.58;57.12;;
66458;Laerm;56835;52.198;4.826;2023-02-26T00:13:38;55.81;53.85;57.10;;
66458;Laerm;56835;52.198;4.826;2023-02-26T00:13:49;55.78;53.78;57.01;;
66458;Laerm;56835;52.198;4.826;2023-02-26T00:14:00;55.79;53.91;57.22;;
66458;Laerm;56835;52.198;4.826;2023-02-26T00:14:11;55.75;53.93;57.60;;
66458;Laerm;56835;52.198;4.826;2023-02-26T00:14:22;55.79;53.56;57.38;;
66458;Laerm;56835;52.198;4.826;2023-02-26T00:14:32;55.82;53.32;57.58;;
66458;Laerm;56835;52.198;4.826;2023-02-26T00:14:43;55.87;53.53;57.45;;
66458;Laerm;56835;52.198;4.826;2023-02-26T00:14:53;55.89;53.51;57.48;;
66458;Laerm;56835;52.198;4.826;2023-02-26T00:15:04;55.83;53.25;57.45;;
66458;Laerm;56835;52.198;4.826;2023-02-26T00:15:15;55.74;53.73;57.07;;
66458;Laerm;56835;52.198;4.826;2023-02-26T00:15:27;55.73;53.88;57.18;;
66458;Laerm;56835;52.198;4.826;2023-02-26T00:15:37;55.74;53.95;57.34;;
66458;Laerm;56835;52.198;4.826;2023-02-26T00:15:49;55.78;54.20;57.18;;
66458;Laerm;56835;52.198;4.826;2023-02-26T00:16:01;55.72;53.72;57.34;;
66458;Laerm;56835;52.198;4.826;2023-02-26T00:16:22;55.90;53.80;57.71;;
66458;Laerm;56835;52.198;4.826;2023-02-26T00:16:35;55.76;53.64;57.26;;
66458;Laerm;56835;52.198;4.826;2023-02-26T00:16:46;55.72;53.61;57.84;;
66458;Laerm;56835;52.198;4.826;2023-02-26T00:17:53;55.73;52.89;57.41;;
66458;Laerm;56835;52.198;4.826;2023-02-26T00:18:06;55.70;53.39;57.15;;
66458;Laerm;56835;52.198;4.826;2023-02-26T00:18:17;55.71;53.59;57.26;;
66458;Laerm;56835;52.198;4.826;2023-02-26T00:18:27;55.71;53.68;57.18;;
66458;Laerm;56835;52.198;4.826;2023-02-26T00:18:38;55.68;53.64;57.01;;
66458;Laerm;56835;52.198;4.826;2023-02-26T00:18:48;55.67;53.37;57.04;;
66458;Laerm;56835;52.198;4.826;2023-02-26T00:18:59;55.60;53.42;57.22;;
66458;Laerm;56835;52.198;4.826;2023-02-26T00:19:10;55.64;53.06;57.19;;
66458;Laerm;56835;52.198;4.826;2023-02-26T00:19:21;55.73;53.71;57.41;;
66458;Laerm;56835;52.198;4.826;2023-02-26T00:19:31;55.61;53.67;57.26;;
66458;Laerm;56835;52.198;4.826;2023-02-26T00:19:41;55.64;53.96;57.19;;
66458;Laerm;56835;52.198;4.826;2023-02-26T00:19:52;55.61;53.65;56.87;;
66458;Laerm;56835;52.198;4.826;2023-02-26T00:20:03;55.69;54.02;57.04;;
66458;Laerm;56835;52.198;4.826;2023-02-26T00:20:14;55.67;53.28;57.24;;
66458;Laerm;56835;52.198;4.826;2023-02-26T00:20:26;55.63;53.50;56.95;;
66458;Laerm;56835;52.198;4.826;2023-02-26T00:20:36;55.68;53.31;56.94;;
66458;Laerm;56835;52.198;4.826;2023-02-26T00:20:46;55.64;53.72;56.86;;
66458;Laerm;56835;52.198;4.826;2023-02-26T00:20:57;55.72;53.81;57.27;;
66458;Laerm;56835;52.198;4.826;2023-02-26T00:21:07;55.59;53.62;57.15;;
66458;Laerm;56835;52.198;4.826;2023-02-26T00:21:24;55.60;53.78;57.11;;
66458;Laerm;56835;52.198;4.826;2023-02-26T00:21:35;55.63;53.48;57.11;;
66458;Laerm;56835;52.198;4.826;2023-02-26T00:21:45;55.71;53.17;57.06;;
66458;Laerm;56835;52.198;4.826;2023-02-26T00:21:56;55.63;53.63;57.09;;
66458;Laerm;56835;52.198;4.826;2023-02-26T00:22:06;55.59;53.40;57.11;;
66458;Laerm;56835;52.198;4.826;2023-02-26T00:22:16;55.53;53.51;57.01;;
66458;Laerm;56835;52.198;4.826;2023-02-26T00:22:27;55.62;52.84;57.08;;
66458;Laerm;56835;52.198;4.826;2023-02-26T00:22:38;55.57;53.84;57.06;;
66458;Laerm;56835;52.198;4.826;2023-02-26T00:22:48;55.59;53.26;57.15;;
66458;Laerm;56835;52.198;4.826;2023-02-26T00:22:59;55.66;54.12;57.32;;
66458;Laerm;56835;52.198;4.826;2023-02-26T00:23:12;55.68;53.88;56.89;;
66458;Laerm;56835;52.198;4.826;2023-02-26T00:23:27;55.70;53.71;57.26;;
66458;Laerm;56835;52.198;4.826;2023-02-26T00:23:37;55.70;53.34;57.13;;
66458;Laerm;56835;52.198;4.826;2023-02-26T00:23:48;55.67;52.84;57.24;;
66458;Laerm;56835;52.198;4.826;2023-02-26T00:23:58;55.60;53.80;57.20;;
66458;Laerm;56835;52.198;4.826;2023-02-26T00:24:09;55.60;53.33;57.03;;
66458;Laerm;56835;52.198;4.826;2023-02-26T00:24:19;55.57;53.65;57.04;;
66458;Laerm;56835;52.198;4.826;2023-02-26T00:24:30;55.63;53.25;57.14;;
66458;Laerm;56835;52.198;4.826;2023-02-26T00:24:40;55.52;53.56;57.19;;
66458;Laerm;56835;52.198;4.826;2023-02-26T00:24:51;55.57;53.65;57.06;;
66458;Laerm;56835;52.198;4.826;2023-02-26T00:25:01;55.55;53.69;56.99;;
66458;Laerm;56835;52.198;4.826;2023-02-26T00:25:12;55.57;54.01;56.79;;
66458;Laerm;56835;52.198;4.826;2023-02-26T00:25:22;55.57;54.11;56.97;;
66458;Laerm;56835;52.198;4.826;2023-02-26T00:25:33;55.59;53.49;57.47;;
66458;Laerm;56835;52.198;4.826;2023-02-26T00:25:43;55.56;53.11;56.99;;
66458;Laerm;56835;52.198;4.826;2023-02-26T00:25:54;55.60;52.92;57.16;;
66458;Laerm;56835;52.198;4.826;2023-02-26T00:26:06;55.63;53.57;57.25;;
66458;Laerm;56835;52.198;4.826;2023-02-26T00:26:16;55.56;53.31;57.11;;
66458;Laerm;56835;52.198;4.826;2023-02-26T00:26:27;55.50;52.98;56.74;;
66458;Laerm;56835;52.198;4.826;2023-02-26T00:26:38;55.58;53.41;56.99;;
66458;Laerm;56835;52.198;4.826;2023-02-26T00:26:48;55.59;53.68;57.01;;
66458;Laerm;56835;52.198;4.826;2023-02-26T00:26:58;55.52;53.08;57.15;;
66458;Laerm;56835;52.198;4.826;2023-02-26T00:27:10;55.60;52.98;56.87;;
66458;Laerm;56835;52.198;4.826;2023-02-26T00:27:20;55.55;52.75;56.98;;
66458;Laerm;56835;52.198;4.826;2023-02-26T00:27:31;55.65;53.44;57.17;;
66458;Laerm;56835;52.198;4.826;2023-02-26T00:27:41;55.68;54.15;57.55;;
66458;Laerm;56835;52.198;4.826;2023-02-26T00:27:53;55.49;53.19;56.98;;
66458;Laerm;56835;52.198;4.826;2023-02-26T00:28:03;55.49;53.74;57.30;;
66458;Laerm;56835;52.198;4.826;2023-02-26T00:28:13;55.50;53.68;57.21;;
66458;Laerm;56835;52.198;4.826;2023-02-26T00:28:24;55.59;54.08;57.17;;
66458;Laerm;56835;52.198;4.826;2023-02-26T00:28:34;55.64;53.46;57.24;;
66458;Laerm;56835;52.198;4.826;2023-02-26T00:28:45;55.61;53.26;57.19;;
66458;Laerm;56835;52.198;4.826;2023-02-26T00:28:55;55.66;53.24;57.14;;
66458;Laerm;56835;52.198;4.826;2023-02-26T00:29:06;55.60;54.02;57.15;;
66458;Laerm;56835;52.198;4.826;2023-02-26T00:29:16;55.65;53.66;57.00;;
66458;Laerm;56835;52.198;4.826;2023-02-26T00:29:26;55.64;53.65;57.48;;
66458;Laerm;56835;52.198;4.826;2023-02-26T00:29:37;55.64;53.77;57.35;;
66458;Laerm;56835;52.198;4.826;2023-02-26T00:29:47;55.65;54.13;57.17;;
66458;Laerm;56835;52.198;4.826;2023-02-26T00:29:58;55.67;53.38;57.04;;
66458;Laerm;56835;52.198;4.826;2023-02-26T00:30:08;55.51;52.84;56.78;;
66458;Laerm;56835;52.198;4.826;2023-02-26T00:30:19;55.50;53.37;56.77;;
66458;Laerm;56835;52.198;4.826;2023-02-26T00:30:29;55.51;53.15;57.16;;
66458;Laerm;56835;52.198;4.826;2023-02-26T00:30:40;55.47;53.19;56.93;;
66458;Laerm;56835;52.198;4.826;2023-02-26T00:30:50;55.53;53.56;56.81;;
66458;Laerm;56835;52.198;4.826;2023-02-26T00:31:01;55.42;53.37;57.00;;
66458;Laerm;56835;52.198;4.826;2023-02-26T00:31:13;55.50;53.52;56.98;;
66458;Laerm;56835;52.198;4.826;2023-02-26T00:31:23;55.50;52.98;57.07;;
66458;Laerm;56835;52.198;4.826;2023-02-26T00:31:34;55.48;53.09;56.88;;
66458;Laerm;56835;52.198;4.826;2023-02-26T00:31:44;55.48;53.56;56.82;;
66458;Laerm;56835;52.198;4.826;2023-02-26T00:31:55;55.46;53.60;56.76;;
66458;Laerm;56835;52.198;4.826;2023-02-26T00:32:05;55.48;53.38;56.90;;
66458;Laerm;56835;52.198;4.826;2023-02-26T00:32:15;55.44;53.44;56.92;;
66458;Laerm;56835;52.198;4.826;2023-02-26T00:32:28;55.45;53.34;57.16;;
66458;Laerm;56835;52.198;4.826;2023-02-26T00:32:39;55.53;53.07;56.83;;
66458;Laerm;56835;52.198;4.826;2023-02-26T00:32:49;55.50;53.56;56.97;;
66458;Laerm;56835;52.198;4.826;2023-02-26T00:33:00;55.43;53.32;57.56;;
66458;Laerm;56835;52.198;4.826;2023-02-26T00:33:10;55.46;53.46;57.00;;
66458;Laerm;56835;52.198;4.826;2023-02-26T00:33:20;55.44;53.20;57.09;;
66458;Laerm;56835;52.198;4.826;2023-02-26T00:33:31;55.44;53.78;56.76;;
66458;Laerm;56835;52.198;4.826;2023-02-26T00:33:41;55.58;54.14;56.81;;
66458;Laerm;56835;52.198;4.826;2023-02-26T00:33:52;55.56;53.51;56.92;;
66458;Laerm;56835;52.198;4.826;2023-02-26T00:34:03;55.53;53.43;56.94;;
66458;Laerm;56835;52.198;4.826;2023-02-26T00:34:14;55.57;53.62;57.06;;
66458;Laerm;56835;52.198;4.826;2023-02-26T00:34:24;55.58;54.04;56.81;;
66458;Laerm;56835;52.198;4.826;2023-02-26T00:34:35;55.49;53.38;57.07;;
66458;Laerm;56835;52.198;4.826;2023-02-26T00:34:46;55.47;53.07;56.83;;
66458;Laerm;56835;52.198;4.826;2023-02-26T00:34:56;55.51;52.90;56.97;;
66458;Laerm;56835;52.198;4.826;2023-02-26T00:35:07;55.52;53.66;57.32;;
66458;Laerm;56835;52.198;4.826;2023-02-26T00:35:20;55.54;53.64;57.05;;
66458;Laerm;56835;52.198;4.826;2023-02-26T00:35:31;55.56;53.87;56.93;;
66458;Laerm;56835;52.198;4.826;2023-02-26T00:35:41;55.52;53.78;56.83;;
66458;Laerm;56835;52.198;4.826;2023-02-26T00:35:53;55.51;52.94;56.99;;
66458;Laerm;56835;52.198;4.826;2023-02-26T00:37:51;55.44;53.14;56.83;;
66458;Laerm;56835;52.198;4.826;2023-02-26T00:38:04;55.42;53.41;56.97;;
66458;Laerm;56835;52.198;4.826;2023-02-26T00:38:16;55.50;53.52;56.71;;
66458;Laerm;56835;52.198;4.826;2023-02-26T00:38:26;55.47;53.59;57.01;;
66458;Laerm;56835;52.198;4.826;2023-02-26T00:38:41;55.48;53.36;57.20;;
66458;Laerm;56835;52.198;4.826;2023-02-26T00:39:58;55.39;53.69;56.87;;
66458;Laerm;56835;52.198;4.826;2023-02-26T00:41:11;55.40;53.21;57.08;;
66458;Laerm;56835;52.198;4.826;2023-02-26T00:41:22;55.36;52.30;57.07;;
66458;Laerm;56835;52.198;4.826;2023-02-26T00:41:32;55.36;53.50;56.55;;
66458;Laerm;56835;52.198;4.826;2023-02-26T00:41:42;55.40;53.76;56.89;;
66458;Laerm;56835;52.198;4.826;2023-02-26T00:41:53;55.41;53.77;56.86;;
66458;Laerm;56835;52.198;4.826;2023-02-26T00:42:03;55.37;53.01;56.99;;
66458;Laerm;56835;52.198;4.826;2023-02-26T00:42:14;55.42;53.64;56.90;;
66458;Laerm;56835;52.198;4.826;2023-02-26T00:42:24;55.33;52.94;56.77;;
66458;Laerm;56835;52.198;4.826;2023-02-26T00:42:35;55.41;53.56;57.30;;
66458;Laerm;56835;52.198;4.826;2023-02-26T00:42:45;55.37;53.24;56.75;;
66458;Laerm;56835;52.198;4.826;2023-02-26T00:42:55;55.36;52.85;56.87;;
66458;Laerm;56835;52.198;4.826;2023-02-26T00:43:07;55.33;52.80;56.81;;
66458;Laerm;56835;52.198;4.826;2023-02-26T00:43:22;55.37;53.57;56.98;;
66458;Laerm;56835;52.198;4.826;2023-02-26T00:43:33;55.47;53.27;57.02;;
66458;Laerm;56835;52.198;4.826;2023-02-26T00:43:44;55.43;53.41;56.71;;
66458;Laerm;56835;52.198;4.826;2023-02-26T00:43:55;55.43;53.58;57.14;;
66458;Laerm;56835;52.198;4.826;2023-02-26T00:44:05;55.40;52.85;56.93;;
66458;Laerm;56835;52.198;4.826;2023-02-26T00:44:16;55.50;53.77;56.84;;
66458;Laerm;56835;52.198;4.826;2023-02-26T00:44:26;55.39;53.18;57.38;;
66458;Laerm;56835;52.198;4.826;2023-02-26T00:44:36;55.31;53.54;56.91;;
66458;Laerm;56835;52.198;4.826;2023-02-26T00:44:47;55.39;53.48;56.57;;
66458;Laerm;56835;52.198;4.826;2023-02-26T00:44:57;55.38;53.59;56.89;;
66458;Laerm;56835;52.198;4.826;2023-02-26T00:45:08;55.42;53.17;56.84;;
66458;Laerm;56835;52.198;4.826;2023-02-26T00:45:19;55.40;53.63;56.82;;
66458;Laerm;56835;52.198;4.826;2023-02-26T00:45:29;55.37;53.61;56.80;;
66458;Laerm;56835;52.198;4.826;2023-02-26T00:46:02;55.35;53.40;56.75;;
66458;Laerm;56835;52.198;4.826;2023-02-26T00:46:21;55.39;53.26;57.22;;
66458;Laerm;56835;52.198;4.826;2023-02-26T00:46:43;55.32;53.35;57.34;;
66458;Laerm;56835;52.198;4.826;2023-02-26T00:46:55;55.38;52.84;57.07;;
66458;Laerm;56835;52.198;4.826;2023-02-26T00:47:12;55.38;53.20;56.67;;
66458;Laerm;56835;52.198;4.826;2023-02-26T00:47:37;55.36;53.01;57.39;;
66458;Laerm;56835;52.198;4.826;2023-02-26T00:48:14;55.35;53.36;57.00;;
66458;Laerm;56835;52.198;4.826;2023-02-26T00:48:46;55.36;53.26;57.25;;
66458;Laerm;56835;52.198;4.826;2023-02-26T00:49:02;55.45;52.40;57.28;;
66458;Laerm;56835;52.198;4.826;2023-02-26T00:49:26;55.33;53.52;56.64;;
66458;Laerm;56835;52.198;4.826;2023-02-26T00:50:26;55.40;53.65;56.74;;
66458;Laerm;56835;52.198;4.826;2023-02-26T00:50:37;55.34;53.21;56.78;;
66458;Laerm;56835;52.198;4.826;2023-02-26T00:51:08;55.38;53.36;56.71;;
66458;Laerm;56835;52.198;4.826;2023-02-26T00:51:31;55.34;53.12;56.75;;
66458;Laerm;56835;52.198;4.826;2023-02-26T00:51:54;55.39;53.00;57.28;;
66458;Laerm;56835;52.198;4.826;2023-02-26T00:52:05;55.34;52.84;56.95;;
66458;Laerm;56835;52.198;4.826;2023-02-26T00:52:35;55.22;52.68;56.88;;
66458;Laerm;56835;52.198;4.826;2023-02-26T00:53:27;55.35;53.55;56.56;;
66458;Laerm;56835;52.198;4.826;2023-02-26T00:53:45;55.35;53.00;56.78;;
66458;Laerm;56835;52.198;4.826;2023-02-26T00:54:29;55.38;53.39;56.74;;
66458;Laerm;56835;52.198;4.826;2023-02-26T00:54:32;55.36;53.15;56.93;;
66458;Laerm;56835;52.198;4.826;2023-02-26T00:54:42;55.36;53.41;57.05;;
66458;Laerm;56835;52.198;4.826;2023-02-26T00:54:53;55.35;53.69;56.65;;
66458;Laerm;56835;52.198;4.826;2023-02-26T00:55:03;55.37;52.63;56.83;;
66458;Laerm;56835;52.198;4.826;2023-02-26T00:55:14;55.38;52.51;57.16;;
66458;Laerm;56835;52.198;4.826;2023-02-26T00:55:24;55.42;53.23;57.01;;
66458;Laerm;56835;52.198;4.826;2023-02-26T00:55:34;55.38;53.24;56.88;;
66458;Laerm;56835;52.198;4.826;2023-02-26T00:55:45;55.37;52.90;56.93;;
66458;Laerm;56835;52.198;4.826;2023-02-26T00:55:55;55.41;53.81;56.95;;
66458;Laerm;56835;52.198;4.826;2023-02-26T00:56:05;55.37;53.17;56.89;;
66458;Laerm;56835;52.198;4.826;2023-02-26T00:56:15;55.36;53.64;56.66;;
66458;Laerm;56835;52.198;4.826;2023-02-26T00:56:25;55.36;53.60;56.83;;
66458;Laerm;56835;52.198;4.826;2023-02-26T00:56:36;55.34;53.40;56.64;;
66458;Laerm;56835;52.198;4.826;2023-02-26T00:56:47;55.33;52.99;57.04;;
66458;Laerm;56835;52.198;4.826;2023-02-26T00:56:58;55.41;53.66;56.77;;
66458;Laerm;56835;52.198;4.826;2023-02-26T00:57:08;55.40;53.49;56.95;;
66458;Laerm;56835;52.198;4.826;2023-02-26T00:57:18;55.28;53.06;56.67;;
66458;Laerm;56835;52.198;4.826;2023-02-26T00:57:29;55.39;53.52;57.16;;
66458;Laerm;56835;52.198;4.826;2023-02-26T00:57:39;55.36;52.92;56.64;;
66458;Laerm;56835;52.198;4.826;2023-02-26T00:57:49;55.39;53.12;56.81;;
66458;Laerm;56835;52.198;4.826;2023-02-26T00:57:59;55.37;52.97;56.72;;
66458;Laerm;56835;52.198;4.826;2023-02-26T00:58:10;55.40;52.87;57.33;;
66458;Laerm;56835;52.198;4.826;2023-02-26T00:58:20;55.40;52.97;57.04;;
66458;Laerm;56835;52.198;4.826;2023-02-26T00:58:30;55.39;53.60;56.79;;
66458;Laerm;56835;52.198;4.826;2023-02-26T00:58:40;55.32;53.48;56.92;;
66458;Laerm;56835;52.198;4.826;2023-02-26T00:58:51;55.37;53.97;56.95;;
66458;Laerm;56835;52.198;4.826;2023-02-26T00:59:01;55.43;53.28;56.68;;
66458;Laerm;56835;52.198;4.826;2023-02-26T00:59:12;55.39;53.52;56.66;;
66458;Laerm;56835;52.198;4.826;2023-02-26T00:59:22;55.42;53.39;57.04;;
66458;Laerm;56835;52.198;4.826;2023-02-26T00:59:32;55.40;53.10;56.92;;
66458;Laerm;56835;52.198;4.826;2023-02-26T00:59:43;55.37;53.54;56.78;;
66458;Laerm;56835;52.198;4.826;2023-02-26T00:59:53;55.37;52.97;56.79;;
66458;Laerm;56835;52.198;4.826;2023-02-26T01:00:03;55.36;52.64;57.04;;
66458;Laerm;56835;52.198;4.826;2023-02-26T01:00:17;55.35;53.04;57.02;;
66458;Laerm;56835;52.198;4.826;2023-02-26T01:00:27;55.33;52.89;56.93;;
66458;Laerm;56835;52.198;4.826;2023-02-26T01:00:37;55.39;53.27;56.67;;
66458;Laerm;56835;52.198;4.826;2023-02-26T01:00:48;55.37;53.69;56.87;;
66458;Laerm;56835;52.198;4.826;2023-02-26T01:00:58;55.38;53.31;56.82;;
66458;Laerm;56835;52.198;4.826;2023-02-26T01:01:09;55.35;52.75;56.75;;
66458;Laerm;56835;52.198;4.826;2023-02-26T01:01:19;55.34;53.58;56.80;;
66458;Laerm;56835;52.198;4.826;2023-02-26T01:01:29;55.31;53.01;56.95;;
66458;Laerm;56835;52.198;4.826;2023-02-26T01:01:40;55.46;53.80;56.88;;
66458;Laerm;56835;52.198;4.826;2023-02-26T01:01:51;55.34;53.63;56.87;;
66458;Laerm;56835;52.198;4.826;2023-02-26T01:02:01;55.37;53.50;56.91;;
66458;Laerm;56835;52.198;4.826;2023-02-26T01:02:11;55.40;53.37;56.82;;
66458;Laerm;56835;52.198;4.826;2023-02-26T01:02:22;55.34;53.86;56.78;;
66458;Laerm;56835;52.198;4.826;2023-02-26T01:02:35;55.40;53.65;56.91;;
66458;Laerm;56835;52.198;4.826;2023-02-26T01:02:46;55.33;53.43;56.76;;
66458;Laerm;56835;52.198;4.826;2023-02-26T01:02:56;55.34;53.72;56.72;;
66458;Laerm;56835;52.198;4.826;2023-02-26T01:03:07;55.40;52.98;56.87;;
66458;Laerm;56835;52.198;4.826;2023-02-26T01:03:17;55.29;52.87;56.70;;
66458;Laerm;56835;52.198;4.826;2023-02-26T01:03:29;55.38;53.12;56.48;;
66458;Laerm;56835;52.198;4.826;2023-02-26T01:03:40;55.37;53.63;57.03;;
66458;Laerm;56835;52.198;4.826;2023-02-26T01:03:51;55.41;53.77;56.63;;
66458;Laerm;56835;52.198;4.826;2023-02-26T01:04:01;55.35;53.05;56.82;;
66458;Laerm;56835;52.198;4.826;2023-02-26T01:04:12;55.30;53.29;56.78;;
66458;Laerm;56835;52.198;4.826;2023-02-26T01:04:23;55.34;53.29;56.87;;
66458;Laerm;56835;52.198;4.826;2023-02-26T01:04:33;55.37;53.04;56.95;;
66458;Laerm;56835;52.198;4.826;2023-02-26T01:04:44;55.31;52.67;56.71;;
66458;Laerm;56835;52.198;4.826;2023-02-26T01:04:56;55.42;53.61;56.97;;
66458;Laerm;56835;52.198;4.826;2023-02-26T01:05:06;55.43;53.75;56.80;;
66458;Laerm;56835;52.198;4.826;2023-02-26T01:05:17;55.44;53.77;57.11;;
66458;Laerm;56835;52.198;4.826;2023-02-26T01:05:28;55.48;53.67;57.44;;
66458;Laerm;56835;52.198;4.826;2023-02-26T01:05:38;55.47;53.33;57.06;;
66458;Laerm;56835;52.198;4.826;2023-02-26T01:05:49;55.34;53.41;56.98;;
66458;Laerm;56835;52.198;4.826;2023-02-26T01:05:59;55.44;53.69;56.93;;
66458;Laerm;56835;52.198;4.826;2023-02-26T01:06:12;55.37;53.38;56.80;;
66458;Laerm;56835;52.198;4.826;2023-02-26T01:06:29;55.33;53.12;57.00;;
66458;Laerm;56835;52.198;4.826;2023-02-26T01:06:43;55.38;52.81;57.05;;
66458;Laerm;56835;52.198;4.826;2023-02-26T01:06:55;55.36;53.24;56.76;;
66458;Laerm;56835;52.198;4.826;2023-02-26T01:07:05;55.33;53.08;56.95;;
66458;Laerm;56835;52.198;4.826;2023-02-26T01:07:18;55.37;53.30;56.82;;
66458;Laerm;56835;52.198;4.826;2023-02-26T01:07:34;55.36;53.40;56.68;;
66458;Laerm;56835;52.198;4.826;2023-02-26T01:08:03;55.34;52.65;56.85;;
66458;Laerm;56835;52.198;4.826;2023-02-26T01:08:31;55.35;53.12;57.70;;
66458;Laerm;56835;52.198;4.826;2023-02-26T01:09:31;55.36;52.87;56.86;;
66458;Laerm;56835;52.198;4.826;2023-02-26T01:09:42;55.42;52.84;56.91;;
66458;Laerm;56835;52.198;4.826;2023-02-26T01:09:53;55.45;53.67;56.95;;
66458;Laerm;56835;52.198;4.826;2023-02-26T01:10:04;55.48;52.49;56.64;;
66458;Laerm;56835;52.198;4.826;2023-02-26T01:10:14;55.49;53.86;56.75;;
66458;Laerm;56835;52.198;4.826;2023-02-26T01:10:25;55.44;53.72;56.73;;
66458;Laerm;56835;52.198;4.826;2023-02-26T01:10:35;55.35;53.10;56.84;;
66458;Laerm;56835;52.198;4.826;2023-02-26T01:10:45;55.38;53.60;56.71;;
66458;Laerm;56835;52.198;4.826;2023-02-26T01:10:56;55.37;52.57;57.10;;
66458;Laerm;56835;52.198;4.826;2023-02-26T01:11:06;55.41;53.39;57.04;;
66458;Laerm;56835;52.198;4.826;2023-02-26T01:11:17;55.39;53.44;56.92;;
66458;Laerm;56835;52.198;4.826;2023-02-26T01:11:27;55.33;53.51;56.80;;
66458;Laerm;56835;52.198;4.826;2023-02-26T01:11:37;55.34;53.37;57.03;;
66458;Laerm;56835;52.198;4.826;2023-02-26T01:11:48;55.35;53.68;56.83;;
66458;Laerm;56835;52.198;4.826;2023-02-26T01:11:59;55.42;53.26;56.79;;
66458;Laerm;56835;52.198;4.826;2023-02-26T01:12:10;55.39;53.26;56.93;;
66458;Laerm;56835;52.198;4.826;2023-02-26T01:12:26;55.42;53.40;56.77;;
66458;Laerm;56835;52.198;4.826;2023-02-26T01:12:37;55.34;53.13;56.81;;